createdAt,value
2023-03-14T00:02:14.561Z,16.78
2023-03-14T00:04:42.243Z,14.79
2023-03-14T00:07:13.072Z,13.98
2023-03-14T00:09:40.758Z,14.08
2023-03-14T00:12:09.720Z,15.71
2023-03-14T00:14:37.344Z,12.57
2023-03-14T00:17:05.523Z,13.42
2023-03-14T00:19:33.154Z,11.17
2023-03-14T00:22:00.820Z,12.06
2023-03-14T00:24:29.783Z,31.56
2023-03-14T00:26:57.433Z,11.92
2023-03-14T00:29:25.042Z,13.71
2023-03-14T00:31:52.684Z,13.66
2023-03-14T00:34:20.321Z,14.64
2023-03-14T00:36:47.872Z,14.25
2023-03-14T00:39:17.825Z,15.81
2023-03-14T00:41:46.781Z,17.98
2023-03-14T00:44:14.430Z,15.04
2023-03-14T00:46:42.192Z,14.30
2023-03-14T00:49:10.002Z,11.88
2023-03-14T00:51:37.845Z,14.19
2023-03-14T00:54:05.805Z,17.91
2023-03-14T00:56:33.457Z,18.02
2023-03-14T00:59:02.424Z,16.30
2023-03-14T01:01:30.162Z,12.83
2023-03-14T01:03:57.827Z,14.81
2023-03-14T01:06:27.297Z,11.69
2023-03-14T01:08:56.484Z,14.05
2023-03-14T01:11:26.562Z,10.29
2023-03-14T01:13:55.053Z,9.95
2023-03-14T01:16:27.095Z,10.88
2023-03-14T01:18:55.028Z,9.87
2023-03-14T01:21:25.625Z,10.75
2023-03-14T01:23:55.206Z,10.97
2023-03-14T01:26:26.087Z,12.67
2023-03-14T01:28:55.722Z,12.84
2023-03-14T01:31:28.493Z,14.11
2023-03-14T01:33:56.672Z,14.37
2023-03-14T01:36:25.592Z,17.22
2023-03-14T01:38:53.268Z,18.79
2023-03-14T01:41:23.246Z,19.38
2023-03-14T01:43:51.788Z,20.40
2023-03-14T01:46:32.990Z,22.51
2023-03-14T01:49:11.730Z,20.83
2023-03-14T01:51:46.432Z,20.01
2023-03-14T01:54:20.721Z,16.50
2023-03-14T01:56:54.073Z,17.04
2023-03-14T01:59:25.446Z,17.09
2023-03-14T02:01:56.525Z,16.80
2023-03-14T02:04:28.094Z,16.37
2023-03-14T02:07:03.855Z,14.51
2023-03-14T02:09:31.772Z,14.48
2023-03-14T02:12:00.477Z,15.91
2023-03-14T02:14:32.850Z,15.37
2023-03-14T02:17:06.351Z,12.58
2023-03-14T02:19:50.166Z,12.55
2023-03-14T02:22:18.202Z,12.84
2023-03-14T02:24:59.278Z,13.63
2023-03-14T02:27:28.670Z,7.83
2023-03-14T02:30:02.107Z,8.78
2023-03-14T02:32:33.525Z,6.79
2023-03-14T02:35:07.686Z,12.26
2023-03-14T02:37:40.162Z,7.92
2023-03-14T02:40:09.696Z,6.99
2023-03-14T02:42:41.374Z,6.91
2023-03-14T02:45:35.424Z,5.56
2023-03-14T02:48:09.838Z,7.17
2023-03-14T02:50:38.724Z,6.44
2023-03-14T02:53:06.795Z,7.22
2023-03-14T02:55:34.440Z,7.06
2023-03-14T02:58:03.434Z,7.32
2023-03-14T03:00:31.084Z,9.30
2023-03-14T03:02:58.754Z,9.03
2023-03-14T03:05:26.374Z,8.80
2023-03-14T03:07:54.029Z,7.69
2023-03-14T03:10:21.612Z,8.19
2023-03-14T03:12:49.174Z,6.49
2023-03-14T03:15:18.555Z,7.65
2023-03-14T03:17:46.347Z,7.88
2023-03-14T03:20:14.013Z,6.09
2023-03-14T03:22:41.639Z,6.08
2023-03-14T03:25:13.122Z,5.73
2023-03-14T03:27:40.743Z,6.23
2023-03-14T03:30:10.238Z,10.41
2023-03-14T03:32:39.231Z,6.29
2023-03-14T03:35:07.542Z,6.49
2023-03-14T03:37:36.018Z,22.78
2023-03-14T03:40:05.480Z,8.22
2023-03-14T03:42:34.611Z,7.06
2023-03-14T03:45:02.669Z,7.60
2023-03-14T03:47:32.129Z,7.28
2023-03-14T03:50:01.036Z,6.41
2023-03-14T03:52:28.631Z,6.17
2023-03-14T03:54:56.356Z,7.27
2023-03-14T03:57:24.093Z,7.31
2023-03-14T03:59:51.691Z,15.63
2023-03-14T04:02:19.413Z,6.55
2023-03-14T04:04:47.191Z,7.71
2023-03-14T04:07:18.530Z,7.56
2023-03-14T04:09:46.311Z,6.48
2023-03-14T04:12:13.847Z,19.76
2023-03-14T04:14:41.452Z,7.41
2023-03-14T04:17:09.081Z,6.73
2023-03-14T04:19:36.887Z,7.33
2023-03-14T04:22:06.925Z,6.56
2023-03-14T04:24:36.444Z,5.94
2023-03-14T04:27:04.179Z,6.52
2023-03-14T04:29:31.720Z,6.83
2023-03-14T04:31:59.336Z,5.76
2023-03-14T04:34:26.954Z,9.45
2023-03-14T04:36:54.483Z,7.23
2023-03-14T04:39:22.038Z,7.66
2023-03-14T04:41:51.235Z,8.87
2023-03-14T04:44:19.200Z,8.64
2023-03-14T04:46:46.840Z,7.76
2023-03-14T04:49:14.339Z,8.64
2023-03-14T04:51:41.876Z,8.80
2023-03-14T04:54:09.670Z,9.33
2023-03-14T04:56:37.520Z,10.28
2023-03-14T04:59:06.536Z,10.74
2023-03-14T05:01:34.099Z,10.35
2023-03-14T05:04:01.734Z,10.76
2023-03-14T05:06:29.275Z,10.38
2023-03-14T05:08:56.808Z,11.42
2023-03-14T05:11:24.367Z,11.23
2023-03-14T05:13:51.946Z,10.21
2023-03-14T05:16:20.905Z,9.95
2023-03-14T05:18:48.464Z,13.05
2023-03-14T05:21:16.084Z,12.19
2023-03-14T05:23:43.681Z,11.61
2023-03-14T05:26:11.333Z,12.65
2023-03-14T05:28:38.932Z,12.05
2023-03-14T05:31:08.785Z,12.37
2023-03-14T05:33:37.876Z,12.09
2023-03-14T05:36:06.461Z,11.48
2023-03-14T05:38:34.099Z,11.75
2023-03-14T05:41:01.712Z,10.04
2023-03-14T05:43:29.255Z,11.24
2023-03-14T05:45:56.892Z,11.54
2023-03-14T05:48:24.525Z,9.52
2023-03-14T05:50:57.304Z,11.21
2023-03-14T05:53:25.043Z,10.63
2023-03-14T05:55:54.932Z,13.64
2023-03-14T05:58:24.335Z,13.50
2023-03-14T06:00:52.317Z,12.70
2023-03-14T06:03:19.947Z,11.07
2023-03-14T06:05:50.066Z,11.55
2023-03-14T06:08:19.040Z,11.81
2023-03-14T06:10:46.548Z,13.44
2023-03-14T06:13:14.112Z,14.17
2023-03-14T06:15:42.054Z,16.65
2023-03-14T06:18:09.814Z,18.16
2023-03-14T06:20:38.468Z,16.83
2023-03-14T06:23:06.470Z,21.05
2023-03-14T06:25:36.337Z,16.18
2023-03-14T06:28:05.333Z,15.60
2023-03-14T06:30:33.151Z,18.42
2023-03-14T06:33:00.905Z,20.90
2023-03-14T06:35:29.016Z,14.65
2023-03-14T06:37:56.819Z,19.20
2023-03-14T06:40:24.467Z,21.01
2023-03-14T06:42:53.713Z,18.65
2023-03-14T06:45:21.582Z,21.33
2023-03-14T06:47:49.299Z,20.90
2023-03-14T06:50:19.872Z,14.31
2023-03-14T06:52:47.598Z,17.77
2023-03-14T06:55:16.036Z,17.57
2023-03-14T06:57:44.207Z,18.01
2023-03-14T07:00:14.533Z,20.87
2023-03-14T07:02:43.456Z,15.11
2023-03-14T07:05:11.558Z,18.64
2023-03-14T07:07:39.269Z,21.19
2023-03-14T07:10:07.433Z,31.40
2023-03-14T07:12:35.314Z,17.82
2023-03-14T07:15:15.757Z,19.72
2023-03-14T07:17:47.877Z,21.48
2023-03-14T07:20:16.013Z,22.22
2023-03-14T07:22:44.762Z,23.10
2023-03-14T07:25:12.351Z,17.01
2023-03-14T07:27:40.052Z,17.10
2023-03-14T07:30:08.534Z,18.58
2023-03-14T07:32:36.743Z,17.39
2023-03-14T07:35:07.294Z,18.32
2023-03-14T07:37:35.228Z,17.25
2023-03-14T07:40:02.907Z,19.30
2023-03-14T07:42:30.522Z,19.08
2023-03-14T07:44:59.084Z,16.54
2023-03-14T07:47:26.937Z,19.11
2023-03-14T07:49:54.842Z,23.05
2023-03-14T07:52:23.826Z,18.56
2023-03-14T07:54:51.730Z,14.54
2023-03-14T07:57:19.606Z,15.80
2023-03-14T07:59:47.177Z,16.22
2023-03-14T08:02:14.776Z,16.97
2023-03-14T08:04:42.902Z,17.71
2023-03-14T08:07:10.730Z,18.13
2023-03-14T08:09:39.966Z,18.90
2023-03-14T08:12:08.064Z,19.21
2023-03-14T08:14:37.196Z,18.16
2023-03-14T08:17:05.602Z,18.98
2023-03-14T08:19:33.247Z,18.14
2023-03-14T08:22:00.936Z,17.17
2023-03-14T08:24:28.657Z,15.23
2023-03-14T08:26:57.679Z,16.52
2023-03-14T08:29:25.323Z,17.67
2023-03-14T08:31:53.148Z,18.62
2023-03-14T08:34:21.247Z,14.51
2023-03-14T08:36:48.918Z,19.50
2023-03-14T08:39:16.565Z,20.63
2023-03-14T08:41:44.442Z,20.34
2023-03-14T08:44:13.762Z,20.86
2023-03-14T08:46:41.511Z,19.21
2023-03-14T08:49:09.087Z,19.40
2023-03-14T08:51:36.651Z,13.32
2023-03-14T08:54:04.274Z,13.27
2023-03-14T08:56:31.801Z,15.17
2023-03-14T08:58:59.384Z,18.33
2023-03-14T09:01:28.296Z,20.20
2023-03-14T09:03:55.882Z,17.02
2023-03-14T09:06:23.540Z,15.89
2023-03-14T09:08:51.107Z,19.13
2023-03-14T09:11:18.705Z,15.43
2023-03-14T09:13:46.326Z,14.33
2023-03-14T09:16:13.922Z,18.90
2023-03-14T09:18:42.881Z,15.88
2023-03-14T09:21:10.479Z,14.08
2023-03-14T09:23:38.209Z,16.99
2023-03-14T09:26:06.345Z,22.13
2023-03-14T09:28:34.186Z,21.10
2023-03-14T09:31:06.722Z,16.21
2023-03-14T09:33:34.424Z,15.96
2023-03-14T09:36:03.786Z,14.67
2023-03-14T09:38:31.977Z,16.02
2023-03-14T09:41:03.662Z,23.09
2023-03-14T09:43:36.183Z,21.92
2023-03-14T09:46:04.499Z,32.78
2023-03-14T09:48:34.672Z,26.08
2023-03-14T09:51:12.425Z,18.72
2023-03-14T09:53:42.959Z,22.79
2023-03-14T09:56:17.071Z,20.75
2023-03-14T09:58:51.339Z,20.97
2023-03-14T10:01:25.658Z,24.83
2023-03-14T10:03:57.923Z,18.46
2023-03-14T10:06:31.739Z,18.45
2023-03-14T10:08:59.688Z,15.52
2023-03-14T10:11:28.341Z,17.16
2023-03-14T10:14:08.588Z,18.79
2023-03-14T10:16:40.997Z,19.44
2023-03-14T10:19:12.901Z,21.70
2023-03-14T10:21:44.256Z,18.03
2023-03-14T10:24:21.592Z,15.36
2023-03-14T10:26:52.631Z,16.87
2023-03-14T10:29:20.556Z,18.80
2023-03-14T10:34:27.268Z,14.37
2023-03-14T10:36:58.607Z,16.42
2023-03-14T10:39:38.579Z,14.27
2023-03-14T10:42:15.857Z,17.20
2023-03-14T10:44:44.880Z,15.85
2023-03-14T10:47:21.174Z,23.00
2023-03-14T10:49:48.921Z,25.75
2023-03-14T10:52:26.370Z,29.49
2023-03-14T10:55:01.678Z,27.07
2023-03-14T10:57:29.695Z,27.01
2023-03-14T10:59:58.150Z,28.47
2023-03-14T11:02:50.560Z,22.83
2023-03-14T11:05:31.579Z,22.24
2023-03-14T11:08:03.740Z,20.84
2023-03-14T11:10:35.426Z,18.75
2023-03-14T11:13:16.595Z,20.53
2023-03-14T11:15:57.816Z,22.61
2023-03-14T11:18:47.273Z,24.23
2023-03-14T11:21:22.403Z,25.09
2023-03-14T11:24:10.045Z,24.11
2023-03-14T11:26:43.454Z,24.19
2023-03-14T11:29:22.099Z,23.11
2023-03-14T11:31:49.955Z,23.01
2023-03-14T11:34:27.188Z,22.65
2023-03-14T11:37:02.238Z,22.54
2023-03-14T11:39:41.004Z,20.38
2023-03-14T11:42:16.080Z,28.16
2023-03-14T11:44:48.977Z,26.51
2023-03-14T11:47:22.187Z,28.32
2023-03-14T11:49:54.539Z,23.09
2023-03-14T11:52:31.597Z,29.06
2023-03-14T11:55:08.195Z,31.95
2023-03-14T11:57:36.173Z,28.02
2023-03-14T12:00:17.785Z,25.23
2023-03-14T12:02:54.316Z,23.46
2023-03-14T12:05:57.492Z,30.23
2023-03-14T12:08:42.978Z,24.83
2023-03-14T12:11:19.224Z,24.52
2023-03-14T12:13:50.553Z,21.63
2023-03-14T12:16:31.506Z,19.76
2023-03-14T12:19:35.453Z,17.95
2023-03-14T12:22:18.360Z,17.69
2023-03-14T12:24:51.382Z,20.52
2023-03-14T12:27:44.291Z,19.78
2023-03-14T12:30:25.922Z,17.80
2023-03-14T12:33:35.319Z,19.88
2023-03-14T12:36:49.220Z,20.74
2023-03-14T12:39:38.896Z,20.72
2023-03-14T12:42:12.300Z,19.77
2023-03-14T12:44:44.900Z,21.69
2023-03-14T12:47:46.889Z,18.79
2023-03-14T12:50:21.314Z,15.12
2023-03-14T12:53:15.530Z,14.31
2023-03-14T12:55:52.814Z,16.81
2023-03-14T12:58:29.504Z,16.36
2023-03-14T13:01:03.077Z,15.13
2023-03-14T13:03:43.837Z,11.75
2023-03-14T13:06:11.782Z,13.54
2023-03-14T13:08:42.038Z,18.13
2023-03-14T13:11:13.926Z,11.64
2023-03-14T13:13:49.043Z,12.62
2023-03-14T13:16:21.758Z,11.12
2023-03-14T13:18:52.248Z,11.44
2023-03-14T13:21:22.671Z,11.79
2023-03-14T13:23:58.778Z,9.96
2023-03-14T13:26:34.984Z,11.82
2023-03-14T13:29:15.298Z,13.17
2023-03-14T13:31:46.334Z,11.30
2023-03-14T13:34:14.845Z,10.85
2023-03-14T13:36:42.394Z,25.25
2023-03-14T13:39:14.818Z,15.19
2023-03-14T13:41:44.211Z,14.27
2023-03-14T13:44:19.125Z,13.87
2023-03-14T13:46:48.067Z,11.96
2023-03-14T13:49:24.689Z,12.10
2023-03-14T13:51:52.776Z,13.99
2023-03-14T13:54:22.513Z,10.16
2023-03-14T13:57:00.580Z,9.87
2023-03-14T13:59:30.244Z,11.12
2023-03-14T14:02:05.070Z,10.93
2023-03-14T14:04:38.020Z,12.26
2023-03-14T14:07:10.938Z,14.90
2023-03-14T14:09:42.134Z,15.80
2023-03-14T14:12:16.957Z,12.40
2023-03-14T14:14:51.265Z,13.22
2023-03-14T14:17:25.217Z,14.26
2023-03-14T14:19:55.071Z,13.80
2023-03-14T14:22:23.503Z,14.54
2023-03-14T14:24:51.582Z,19.67
2023-03-14T14:27:26.282Z,25.41
2023-03-14T14:30:00.550Z,33.55
2023-03-14T14:32:36.547Z,36.65
2023-03-14T14:35:05.208Z,48.74
2023-03-14T14:37:35.901Z,42.41
2023-03-14T14:40:11.390Z,31.19
2023-03-14T14:42:41.919Z,46.03
2023-03-14T14:45:17.245Z,41.22
2023-03-14T14:47:54.405Z,29.29
2023-03-14T14:50:30.523Z,39.59
2023-03-14T14:52:59.231Z,32.93
2023-03-14T14:55:34.199Z,33.42
2023-03-14T14:58:20.856Z,34.74
2023-03-14T15:00:55.672Z,45.91
2023-03-14T15:03:28.996Z,34.24
2023-03-14T15:05:56.864Z,32.95
2023-03-14T15:08:27.011Z,33.66
2023-03-14T15:10:55.244Z,39.05
2023-03-14T15:13:22.913Z,36.04
2023-03-14T15:15:51.554Z,33.51
2023-03-14T15:18:19.669Z,32.50
2023-03-14T15:20:48.640Z,36.49
2023-03-14T15:23:18.856Z,37.56
2023-03-14T15:25:55.420Z,35.94
2023-03-14T15:28:25.624Z,37.38
2023-03-14T15:30:55.266Z,37.96
2023-03-14T15:33:23.376Z,29.11
2023-03-14T15:35:53.396Z,39.29
2023-03-14T15:38:22.695Z,36.28
2023-03-14T15:40:51.271Z,32.04
2023-03-14T15:43:19.461Z,26.67
2023-03-14T15:45:47.234Z,29.26
2023-03-14T15:48:17.913Z,34.10
2023-03-14T15:50:45.887Z,28.97
2023-03-14T15:53:15.901Z,25.64
2023-03-14T15:55:46.149Z,33.04
2023-03-14T15:58:21.220Z,30.91
2023-03-14T16:00:49.796Z,36.65
2023-03-14T16:03:17.799Z,33.48
2023-03-14T16:05:45.469Z,29.76
2023-03-14T16:08:13.196Z,32.16
2023-03-14T16:10:42.170Z,26.83
2023-03-14T16:13:10.201Z,27.28
2023-03-14T16:15:37.847Z,25.14
2023-03-14T16:18:20.677Z,31.40
2023-03-14T16:20:53.956Z,24.34
2023-03-14T16:23:21.980Z,21.75
2023-03-14T16:25:52.256Z,33.27
2023-03-14T16:28:19.945Z,16.36
2023-03-14T16:30:50.637Z,19.04
2023-03-14T16:33:19.485Z,21.76
2023-03-14T16:35:57.414Z,23.46
2023-03-14T16:38:31.525Z,26.80
2023-03-14T16:41:04.942Z,31.88
2023-03-14T16:43:33.835Z,31.65
2023-03-14T16:46:01.539Z,31.29
2023-03-14T16:48:29.791Z,29.22
2023-03-14T16:50:57.580Z,27.85
2023-03-14T16:53:26.139Z,30.94
2023-03-14T16:55:53.778Z,28.39
2023-03-14T16:58:23.356Z,31.40
2023-03-14T17:00:51.353Z,38.01
2023-03-14T17:03:19.093Z,33.86
2023-03-14T17:05:47.679Z,39.30
2023-03-14T17:08:16.440Z,36.76
2023-03-14T17:10:44.175Z,34.33
2023-03-14T17:13:12.298Z,24.62
2023-03-14T17:15:46.033Z,25.39
2023-03-14T17:18:13.769Z,23.84
2023-03-14T17:20:41.758Z,22.82
2023-03-14T17:23:11.194Z,23.70
2023-03-14T17:25:40.397Z,22.85
2023-03-14T17:28:07.976Z,24.99
2023-03-14T17:30:35.725Z,30.02
2023-03-14T17:33:04.851Z,32.86
2023-03-14T17:35:32.472Z,32.08
2023-03-14T17:38:00.714Z,33.21
2023-03-14T17:40:28.636Z,32.20
2023-03-14T17:42:56.424Z,32.15
2023-03-14T17:45:24.028Z,30.30
2023-03-14T17:47:53.038Z,25.83
2023-03-14T17:50:23.594Z,37.26
2023-03-14T17:52:51.371Z,35.87
2023-03-14T17:55:20.067Z,28.93
2023-03-14T17:57:47.664Z,28.66
2023-03-14T18:00:16.853Z,37.73
2023-03-14T18:02:44.569Z,31.69
2023-03-14T18:05:14.747Z,32.03
2023-03-14T18:07:43.778Z,28.01
2023-03-14T18:10:11.878Z,29.51
2023-03-14T18:12:39.441Z,23.10
2023-03-14T18:15:08.105Z,19.98
2023-03-14T18:17:35.757Z,24.53
2023-03-14T18:20:03.766Z,18.22
2023-03-14T18:22:31.337Z,25.42
2023-03-14T18:25:00.265Z,25.07
2023-03-14T18:27:28.075Z,25.72
2023-03-14T18:29:55.650Z,23.77
2023-03-14T18:32:23.427Z,26.73
2023-03-14T18:34:51.155Z,29.94
2023-03-14T18:37:18.799Z,26.09
2023-03-14T18:39:46.597Z,26.68
2023-03-14T18:42:15.828Z,27.90
2023-03-14T18:44:43.420Z,35.51
2023-03-14T18:47:11.187Z,31.67
2023-03-14T18:49:39.094Z,27.87
2023-03-14T18:52:06.680Z,25.13
2023-03-14T18:54:44.952Z,28.29
2023-03-14T18:57:42.283Z,33.21
2023-03-14T19:00:14.469Z,35.53
2023-03-14T19:02:42.122Z,34.80
2023-03-14T19:05:09.795Z,27.50
2023-03-14T19:07:37.319Z,28.70
2023-03-14T19:10:05.938Z,32.96
2023-03-14T19:12:34.843Z,32.33
2023-03-14T19:15:03.294Z,27.38
2023-03-14T19:17:30.914Z,28.60
2023-03-14T19:19:58.856Z,26.48
2023-03-14T19:22:27.560Z,20.96
2023-03-14T19:24:55.137Z,27.00
2023-03-14T19:27:22.818Z,31.15
2023-03-14T19:29:51.799Z,28.93
2023-03-14T19:32:20.273Z,33.89
2023-03-14T19:34:47.897Z,29.84
2023-03-14T19:37:15.589Z,26.47
2023-03-14T19:39:43.255Z,29.23
2023-03-14T19:42:10.930Z,30.95
2023-03-14T19:44:38.941Z,27.66
2023-03-14T19:47:08.053Z,20.96
2023-03-14T19:49:36.210Z,23.98
2023-03-14T19:52:04.269Z,29.06
2023-03-14T19:54:31.892Z,23.16
2023-03-14T19:56:59.518Z,25.90
2023-03-14T19:59:27.137Z,24.50
2023-03-14T20:01:54.902Z,23.12
2023-03-14T20:04:23.931Z,20.38
2023-03-14T20:06:51.779Z,26.34
2023-03-14T20:09:19.686Z,19.60
2023-03-14T20:11:48.091Z,24.21
2023-03-14T20:14:15.746Z,20.09
2023-03-14T20:16:43.689Z,20.67
2023-03-14T20:19:12.879Z,29.58
2023-03-14T20:21:41.941Z,30.57
2023-03-14T20:24:09.676Z,33.66
2023-03-14T20:26:38.068Z,25.98
2023-03-14T20:29:05.665Z,24.77
2023-03-14T20:31:33.520Z,28.26
2023-03-14T20:34:02.207Z,24.07
2023-03-14T20:36:29.922Z,22.64
2023-03-14T20:38:58.929Z,22.98
2023-03-14T20:41:26.698Z,37.15
2023-03-14T20:43:54.401Z,24.22
2023-03-14T20:46:22.114Z,19.66
2023-03-14T20:48:49.827Z,21.92
2023-03-14T20:51:17.473Z,19.52
2023-03-14T20:53:45.192Z,19.47
2023-03-14T20:56:14.089Z,17.62
2023-03-14T20:58:41.800Z,19.15
2023-03-14T21:01:23.316Z,21.78
2023-03-14T21:03:52.021Z,23.26
2023-03-14T21:06:19.584Z,21.73
2023-03-14T21:08:47.506Z,37.30
2023-03-14T21:11:16.386Z,19.38
2023-03-14T21:13:43.940Z,34.78
2023-03-14T21:16:11.568Z,25.32
2023-03-14T21:18:39.194Z,18.61
2023-03-14T21:21:07.466Z,23.13
2023-03-14T21:23:35.133Z,20.37
2023-03-14T21:26:02.909Z,19.79
2023-03-14T21:28:32.258Z,18.91
2023-03-14T21:31:04.960Z,19.60
2023-03-14T21:33:32.801Z,20.06
2023-03-14T21:36:00.722Z,17.46
2023-03-14T21:38:28.328Z,18.25
2023-03-14T21:40:56.464Z,20.86
2023-03-14T21:43:24.474Z,27.80
2023-03-14T21:45:53.863Z,23.93
2023-03-14T21:48:22.420Z,19.59
2023-03-14T21:50:52.399Z,28.35
2023-03-14T21:53:20.702Z,22.28
2023-03-14T21:55:48.416Z,24.85
2023-03-14T21:58:15.992Z,25.44
2023-03-14T22:00:44.757Z,25.98
2023-03-14T22:03:13.980Z,20.47
2023-03-14T22:05:44.748Z,20.16
2023-03-14T22:08:14.381Z,22.30
2023-03-14T22:10:45.289Z,22.78
2023-03-14T22:13:13.127Z,24.66
2023-03-14T22:15:41.545Z,20.57
2023-03-14T22:18:09.227Z,16.92
2023-03-14T22:20:38.253Z,21.29
2023-03-14T22:23:05.835Z,18.81
2023-03-14T22:25:33.452Z,27.22
2023-03-14T22:28:01.048Z,25.70
2023-03-14T22:30:28.637Z,30.19
2023-03-14T22:32:56.469Z,24.81
2023-03-14T22:35:24.033Z,27.44
2023-03-14T22:37:53.316Z,30.48
2023-03-14T22:40:21.149Z,32.56
2023-03-14T22:42:51.652Z,28.40
2023-03-14T22:45:19.372Z,31.34
2023-03-14T22:47:47.028Z,28.78
2023-03-14T22:50:14.879Z,27.28
2023-03-14T22:52:42.455Z,34.58
2023-03-14T22:55:14.082Z,36.97
2023-03-14T22:57:41.973Z,38.65
2023-03-14T23:00:11.224Z,42.55
2023-03-14T23:02:39.876Z,43.80
2023-03-14T23:05:08.287Z,49.64
2023-03-14T23:07:36.120Z,41.83
2023-03-14T23:10:04.459Z,34.44
2023-03-14T23:12:33.366Z,39.25
2023-03-14T23:15:00.915Z,38.83
2023-03-14T23:17:28.489Z,29.18
2023-03-14T23:19:56.133Z,27.91
2023-03-14T23:22:23.666Z,27.58
2023-03-14T23:24:51.215Z,36.74
2023-03-14T23:27:18.831Z,36.79
2023-03-14T23:29:47.922Z,33.49
2023-03-14T23:32:15.716Z,39.35
2023-03-14T23:34:43.898Z,49.33
2023-03-14T23:37:11.916Z,47.92
2023-03-14T23:39:39.781Z,49.18
2023-03-14T23:42:07.948Z,45.09
2023-03-14T23:44:36.008Z,40.45
2023-03-14T23:47:08.327Z,30.06
2023-03-14T23:49:35.940Z,38.06
2023-03-14T23:52:04.194Z,49.07
2023-03-14T23:54:31.844Z,37.71
2023-03-14T23:56:59.548Z,39.13
2023-03-14T23:59:27.082Z,30.69
